createdAt,value
2024-04-23T00:00:55.827Z,102698.91
2024-04-23T00:03:22.659Z,102692.34
2024-04-23T00:05:49.351Z,102699.66
2024-04-23T00:08:16.798Z,102680.66
2024-04-23T00:10:43.697Z,102667.19
2024-04-23T00:13:10.464Z,102678.81
2024-04-23T00:15:37.299Z,102662.84
2024-04-23T00:18:04.332Z,102666.81
2024-04-23T00:20:31.202Z,102653.53
2024-04-23T00:22:57.982Z,102648.41
2024-04-23T00:25:24.747Z,102635.63
2024-04-23T00:27:51.952Z,102631.16
2024-04-23T00:30:18.784Z,102627.66
2024-04-23T00:32:46.241Z,102613.78
2024-04-23T00:35:13.078Z,102612.03
2024-04-23T00:37:39.873Z,102607.50
2024-04-23T00:40:07.205Z,102598.75
2024-04-23T00:42:33.985Z,102583.38
2024-04-23T00:45:00.908Z,102587.31
2024-04-23T00:47:27.776Z,102569.53
2024-04-23T00:49:56.167Z,102564.81
2024-04-23T00:52:23.981Z,102568.94
2024-04-23T00:54:51.436Z,102556.94
2024-04-23T00:57:18.423Z,102556.69
2024-04-23T00:59:45.697Z,102548.09
2024-04-23T01:02:12.498Z,102543.22
2024-04-23T01:04:39.766Z,102541.75
2024-04-23T01:07:06.525Z,102537.94
2024-04-23T01:09:33.498Z,102532.81
2024-04-23T01:12:00.398Z,102529.41
2024-04-23T01:14:27.169Z,102527.78
2024-04-23T01:16:54.259Z,102514.47
2024-04-23T01:19:32.521Z,102515.47
2024-04-23T01:22:08.194Z,102509.44
2024-04-23T01:24:44.516Z,102506.34
2024-04-23T01:27:11.721Z,102497.50
2024-04-23T01:29:38.679Z,102486.47
2024-04-23T01:32:06.314Z,102497.25
2024-04-23T01:34:34.913Z,102486.81
2024-04-23T01:37:03.479Z,102486.41
2024-04-23T01:39:31.693Z,102469.19
2024-04-23T01:41:59.645Z,102472.78
2024-04-23T01:44:30.139Z,102453.03
2024-04-23T01:46:57.287Z,102453.19
2024-04-23T01:49:24.300Z,102446.41
2024-04-23T01:51:51.784Z,102454.13
2024-04-23T01:54:18.550Z,102433.69
2024-04-23T01:56:45.255Z,102435.47
2024-04-23T01:59:12.102Z,102422.47
2024-04-23T02:01:46.362Z,102421.47
2024-04-23T02:04:13.916Z,102422.47
2024-04-23T02:06:43.821Z,102427.66
2024-04-23T02:09:10.918Z,102415.72
2024-04-23T02:11:38.237Z,102409.03
2024-04-23T02:14:04.948Z,102404.63
2024-04-23T02:16:31.808Z,102387.63
2024-04-23T02:18:58.866Z,102389.53
2024-04-23T02:21:25.531Z,102392.03
2024-04-23T02:23:52.301Z,102385.31
2024-04-23T02:26:19.043Z,102380.09
2024-04-23T02:28:45.782Z,102371.44
2024-04-23T02:31:12.774Z,102368.19
2024-04-23T02:33:39.646Z,102365.44
2024-04-23T02:36:06.737Z,102345.69
2024-04-23T02:38:33.424Z,102358.84
2024-04-23T02:41:00.152Z,102350.28
2024-04-23T02:43:29.328Z,102348.53
2024-04-23T02:45:56.023Z,102350.28
2024-04-23T02:48:22.777Z,102339.06
2024-04-23T02:50:50.453Z,102326.44
2024-04-23T02:53:17.264Z,102325.75
2024-04-23T02:55:44.060Z,102326.78
2024-04-23T02:58:10.793Z,102324.63
2024-04-23T03:00:37.643Z,102316.59
2024-04-23T03:03:04.620Z,102316.34
2024-04-23T03:05:31.486Z,102302.59
2024-04-23T03:07:58.345Z,102289.13
2024-04-23T03:10:25.032Z,102293.03
2024-04-23T03:12:51.803Z,102291.88
2024-04-23T03:15:18.558Z,102281.13
2024-04-23T03:17:45.484Z,102280.59
2024-04-23T03:20:12.288Z,102276.31
2024-04-23T03:22:39.078Z,102271.19
2024-04-23T03:25:06.296Z,102267.75
2024-04-23T03:27:33.127Z,102262.69
2024-04-23T03:29:59.893Z,102259.59
2024-04-23T03:32:26.791Z,102240.78
2024-04-23T03:34:53.683Z,102256.09
2024-04-23T03:37:20.485Z,102239.22
2024-04-23T03:39:47.361Z,102229.03
2024-04-23T03:42:14.177Z,102232.56
2024-04-23T03:44:43.172Z,102208.75
2024-04-23T03:47:11.564Z,102226.50
2024-04-23T03:49:38.385Z,102231.16
2024-04-23T03:52:14.233Z,102215.22
2024-04-23T03:54:42.848Z,102216.81
2024-04-23T03:57:09.635Z,102205.22
2024-04-23T03:59:36.456Z,102195.22
2024-04-23T04:02:21.886Z,102205.97
2024-04-23T04:05:07.175Z,102202.31
2024-04-23T04:07:34.084Z,102195.94
2024-04-23T04:10:02.784Z,102191.59
2024-04-23T04:12:29.603Z,102174.47
2024-04-23T04:14:56.305Z,102167.53
2024-04-23T04:17:23.136Z,102165.78
2024-04-23T04:19:50.041Z,102166.69
2024-04-23T04:22:16.840Z,102154.63
2024-04-23T04:24:43.596Z,102151.78
2024-04-23T04:27:10.295Z,102134.34
2024-04-23T04:29:37.138Z,102136.94
2024-04-23T04:32:08.226Z,102131.75
2024-04-23T04:34:35.184Z,102136.63
2024-04-23T04:37:01.930Z,102125.13
2024-04-23T04:39:30.272Z,102112.66
2024-04-23T04:42:06.172Z,102106.78
2024-04-23T04:44:32.992Z,102104.09
2024-04-23T04:47:02.759Z,102102.94
2024-04-23T04:49:30.603Z,102082.91
2024-04-23T04:51:59.807Z,102077.63
2024-04-23T04:54:26.918Z,102077.78
2024-04-23T04:56:53.636Z,102074.06
2024-04-23T04:59:20.407Z,102065.56
2024-04-23T05:01:47.999Z,102066.28
2024-04-23T05:04:14.910Z,102064.13
2024-04-23T05:06:41.687Z,102054.28
2024-04-23T05:09:08.445Z,102049.06
2024-04-23T05:11:35.235Z,102049.66
2024-04-23T05:14:02.226Z,102047.56
2024-04-23T05:16:29.437Z,102048.22
2024-04-23T05:18:56.412Z,102040.66
2024-04-23T05:21:23.197Z,102030.03
2024-04-23T05:23:50.003Z,102168.50
2024-04-23T05:26:16.837Z,102142.16
2024-04-23T05:28:43.627Z,102103.50
2024-04-23T05:31:29.363Z,102092.78
2024-04-23T05:33:56.220Z,102082.97
2024-04-23T05:36:24.187Z,102082.34
2024-04-23T05:38:51.518Z,102088.72
2024-04-23T05:41:18.905Z,102098.84
2024-04-23T05:43:46.044Z,102095.13
2024-04-23T05:46:12.871Z,102096.56
2024-04-23T05:49:17.863Z,102097.66
2024-04-23T05:52:29.621Z,102094.13
2024-04-23T05:55:28.626Z,102097.69
2024-04-23T05:57:56.430Z,102092.50
2024-04-23T06:00:23.517Z,102084.34
2024-04-23T06:02:50.730Z,102087.41
2024-04-23T06:05:17.568Z,102087.63
2024-04-23T06:07:44.366Z,102092.03
2024-04-23T06:10:11.311Z,102094.31
2024-04-23T06:12:38.081Z,102083.84
2024-04-23T06:15:05.258Z,102093.25
2024-04-23T06:17:42.252Z,102088.44
2024-04-23T06:20:15.503Z,102085.38
2024-04-23T06:22:43.887Z,102079.25
2024-04-23T06:25:11.543Z,102072.22
2024-04-23T06:27:39.536Z,102074.75
2024-04-23T06:30:11.349Z,102076.50
2024-04-23T06:32:41.272Z,102061.72
2024-04-23T06:35:10.171Z,102039.56
2024-04-23T06:37:38.337Z,102024.84
2024-04-23T06:40:08.273Z,102011.75
2024-04-23T06:42:34.974Z,102029.44
2024-04-23T06:45:01.810Z,102048.94
2024-04-23T06:47:29.055Z,102078.59
2024-04-23T06:49:56.033Z,102107.81
2024-04-23T06:52:23.046Z,102147.66
2024-04-23T06:54:54.205Z,102176.22
2024-04-23T06:57:24.041Z,102260.13
2024-04-23T06:59:50.828Z,102309.41
2024-04-23T07:02:17.903Z,102376.63
2024-04-23T07:04:44.726Z,102427.66
2024-04-23T07:07:11.594Z,102489.81
2024-04-23T07:09:38.388Z,102523.53
2024-04-23T07:12:05.638Z,102559.47
2024-04-23T07:14:32.432Z,102585.66
2024-04-23T07:16:59.629Z,102600.78
2024-04-23T07:19:26.549Z,102626.00
2024-04-23T07:21:53.733Z,102640.94
2024-04-23T07:24:20.578Z,102633.13
2024-04-23T07:26:49.820Z,102650.16
2024-04-23T07:29:16.645Z,102656.59
2024-04-23T07:31:43.420Z,102635.72
2024-04-23T07:34:10.423Z,102640.19
2024-04-23T07:36:37.220Z,102631.94
2024-04-23T07:39:04.116Z,102630.91
2024-04-23T07:41:31.223Z,102651.69
2024-04-23T07:43:58.204Z,102630.59
2024-04-23T07:46:25.085Z,102636.88
2024-04-23T07:48:52.039Z,102646.34
2024-04-23T07:51:18.828Z,102635.41
2024-04-23T07:53:47.817Z,102649.59
2024-04-23T07:56:14.793Z,102647.66
2024-04-23T07:58:41.639Z,102636.53
2024-04-23T08:01:08.644Z,102645.38
2024-04-23T08:03:35.735Z,102640.56
2024-04-23T08:06:03.827Z,102636.06
2024-04-23T08:08:30.848Z,102633.22
2024-04-23T08:10:59.580Z,102630.78
2024-04-23T08:13:28.544Z,102636.00
2024-04-23T08:15:59.115Z,102616.13
2024-04-23T08:18:26.159Z,102624.66
2024-04-23T08:20:53.360Z,102633.75
2024-04-23T08:23:21.061Z,102629.66
2024-04-23T08:25:49.120Z,102629.72
2024-04-23T08:28:16.035Z,102629.75
2024-04-23T08:30:44.491Z,102621.72
2024-04-23T08:33:11.898Z,102629.75
2024-04-23T08:35:38.828Z,102621.78
2024-04-23T08:38:05.797Z,102614.94
2024-04-23T08:40:32.650Z,102618.69
2024-04-23T08:43:17.216Z,102608.03
2024-04-23T08:45:44.151Z,102612.94
2024-04-23T08:48:11.926Z,102614.59
2024-04-23T08:50:39.263Z,102614.00
2024-04-23T08:53:08.210Z,102618.03
2024-04-23T08:55:41.304Z,102611.31
2024-04-23T08:58:08.487Z,102605.69
2024-04-23T09:00:45.329Z,102602.69
2024-04-23T09:03:20.832Z,102614.13
2024-04-23T09:05:48.615Z,102610.81
2024-04-23T09:08:17.058Z,102612.56
2024-04-23T09:10:45.269Z,102579.72
2024-04-23T09:13:13.393Z,102598.47
2024-04-23T09:15:40.475Z,102587.06
2024-04-23T09:18:08.591Z,102589.94
2024-04-23T09:20:36.125Z,102592.16
2024-04-23T09:23:03.204Z,102594.53
2024-04-23T09:25:37.179Z,102589.28
2024-04-23T09:28:06.948Z,102583.97
2024-04-23T09:30:38.926Z,102576.28
2024-04-23T09:33:06.003Z,102564.47
2024-04-23T09:35:32.944Z,102579.78
2024-04-23T09:37:59.719Z,102566.66
2024-04-23T09:40:26.592Z,102574.00
2024-04-23T09:42:56.484Z,102565.94
2024-04-23T09:45:26.661Z,102569.47
2024-04-23T09:47:53.635Z,102557.25
2024-04-23T09:50:21.371Z,102553.63
2024-04-23T09:52:49.354Z,102556.69
2024-04-23T09:55:17.837Z,102550.44
2024-04-23T09:57:45.529Z,102545.78
2024-04-23T10:00:12.971Z,102546.25
2024-04-23T10:02:40.952Z,102552.38
2024-04-23T10:05:12.017Z,102551.75
2024-04-23T10:08:13.793Z,102544.88
2024-04-23T10:10:48.784Z,102544.28
2024-04-23T10:13:23.002Z,102524.28
2024-04-23T10:15:57.047Z,102539.72
2024-04-23T10:18:35.837Z,102525.88
2024-04-23T10:21:08.459Z,102527.31
2024-04-23T10:23:41.447Z,102520.03
2024-04-23T10:26:09.530Z,102522.28
2024-04-23T10:28:36.970Z,102518.31
2024-04-23T10:31:04.157Z,102512.19
2024-04-23T10:33:32.940Z,102516.34
2024-04-23T10:36:01.622Z,102519.59
2024-04-23T10:38:32.846Z,102507.41
2024-04-23T10:41:00.262Z,102504.41
2024-04-23T10:43:33.572Z,102509.47
2024-04-23T10:46:01.886Z,102510.81
2024-04-23T10:48:29.288Z,102496.50
2024-04-23T10:51:04.163Z,102480.09
2024-04-23T10:53:32.310Z,102499.00
2024-04-23T10:55:59.310Z,102480.41
2024-04-23T10:58:26.693Z,102500.97
2024-04-23T11:01:01.315Z,102506.50
2024-04-23T11:03:35.365Z,102508.09
2024-04-23T11:06:02.600Z,102496.50
2024-04-23T11:08:30.213Z,102492.63
2024-04-23T11:11:01.048Z,102500.53
2024-04-23T11:13:36.961Z,102498.69
2024-04-23T11:16:15.373Z,102487.28
2024-04-23T11:18:43.719Z,102489.19
2024-04-23T11:21:12.383Z,102486.28
2024-04-23T11:23:44.080Z,102483.16
2024-04-23T11:26:11.287Z,102485.78
2024-04-23T11:28:39.392Z,102493.50
2024-04-23T11:31:07.039Z,102485.34
2024-04-23T11:33:34.127Z,102488.88
2024-04-23T11:36:01.161Z,102477.84
2024-04-23T11:38:27.899Z,102482.50
2024-04-23T11:41:18.463Z,102483.03
2024-04-23T11:43:47.175Z,102485.41
2024-04-23T11:46:15.366Z,102476.97
2024-04-23T11:48:43.207Z,102463.88
2024-04-23T11:51:12.191Z,102465.47
2024-04-23T11:53:39.056Z,102453.16
2024-04-23T11:56:06.275Z,102445.00
2024-04-23T11:58:38.646Z,102458.22
2024-04-23T12:01:05.655Z,102456.66
2024-04-23T12:03:33.390Z,102462.75
2024-04-23T12:06:00.691Z,102444.53
2024-04-23T12:08:27.803Z,102444.50
2024-04-23T12:10:59.132Z,102445.13
2024-04-23T12:13:26.076Z,102442.19
2024-04-23T12:15:53.731Z,102440.91
2024-04-23T12:18:21.125Z,102447.38
2024-04-23T12:20:48.003Z,102446.50
2024-04-23T12:23:14.952Z,102450.28
2024-04-23T12:25:42.757Z,102442.97
2024-04-23T12:28:11.686Z,102429.44
2024-04-23T12:30:40.292Z,102435.53
2024-04-23T12:33:12.234Z,102440.97
2024-04-23T12:35:40.036Z,102431.25
2024-04-23T12:38:08.011Z,102430.75
2024-04-23T12:40:35.730Z,102432.13
2024-04-23T12:43:08.752Z,102430.78
2024-04-23T12:45:36.246Z,102419.84
2024-04-23T12:48:04.982Z,102429.72
2024-04-23T12:50:32.947Z,102403.72
2024-04-23T12:53:00.184Z,102422.78
2024-04-23T12:55:29.193Z,102413.50
2024-04-23T12:57:56.238Z,102406.13
2024-04-23T13:00:23.029Z,102408.38
2024-04-23T13:02:49.881Z,102405.56
2024-04-23T13:05:16.905Z,102413.22
2024-04-23T13:07:43.672Z,102390.94
2024-04-23T13:10:11.163Z,102402.75
2024-04-23T13:12:37.953Z,102401.81
2024-04-23T13:15:05.037Z,102392.91
2024-04-23T13:17:31.949Z,102393.97
2024-04-23T13:20:01.296Z,102387.16
2024-04-23T13:22:34.509Z,102388.59
2024-04-23T13:25:02.926Z,102387.13
2024-04-23T13:27:29.899Z,102362.78
2024-04-23T13:29:56.690Z,102363.31
2024-04-23T13:32:23.609Z,102368.53
2024-04-23T13:34:50.703Z,102365.13
2024-04-23T13:37:17.477Z,102366.53
2024-04-23T13:39:44.397Z,102357.63
2024-04-23T13:42:11.213Z,102350.28
2024-04-23T13:44:38.141Z,102340.09
2024-04-23T13:47:05.809Z,102357.59
2024-04-23T13:49:36.145Z,102363.25
2024-04-23T13:52:03.159Z,102354.78
2024-04-23T13:54:29.919Z,102361.88
2024-04-23T13:56:56.669Z,102358.22
2024-04-23T13:59:25.298Z,102351.00
2024-04-23T14:01:52.425Z,102350.31
2024-04-23T14:04:19.360Z,102362.78
2024-04-23T14:06:46.858Z,102345.75
2024-04-23T14:09:13.576Z,102341.84
2024-04-23T14:11:41.116Z,102331.72
2024-04-23T14:14:08.587Z,102329.16
2024-04-23T14:16:35.426Z,102318.09
2024-04-23T14:19:02.175Z,102329.59
2024-04-23T14:21:29.171Z,102317.41
2024-04-23T14:23:55.962Z,102314.75
2024-04-23T14:26:24.276Z,102306.25
2024-04-23T14:28:53.908Z,102310.81
2024-04-23T14:31:20.930Z,102319.63
2024-04-23T14:33:50.701Z,102314.25
2024-04-23T14:36:17.498Z,102318.91
2024-04-23T14:38:47.776Z,102313.31
2024-04-23T14:41:14.718Z,102311.00
2024-04-23T14:43:41.519Z,102311.50
2024-04-23T14:46:12.917Z,102316.50
2024-04-23T14:48:40.388Z,102309.09
2024-04-23T14:51:07.348Z,102297.91
2024-04-23T14:53:34.766Z,102296.69
2024-04-23T14:56:03.402Z,102301.50
2024-04-23T14:58:31.063Z,102301.31
2024-04-23T15:01:01.205Z,102295.38
2024-04-23T15:03:31.545Z,102289.22
2024-04-23T15:05:58.781Z,102287.25
2024-04-23T15:08:26.986Z,102269.94
2024-04-23T15:10:54.298Z,102273.69
2024-04-23T15:13:23.155Z,102266.16
2024-04-23T15:16:08.168Z,102262.81
2024-04-23T15:18:38.081Z,102261.41
2024-04-23T15:21:07.397Z,102253.41
2024-04-23T15:23:34.831Z,102249.09
2024-04-23T15:26:05.559Z,102242.19
2024-04-23T15:28:34.090Z,102243.72
2024-04-23T15:31:02.141Z,102244.41
2024-04-23T15:33:35.201Z,102250.31
2024-04-23T15:36:05.330Z,102252.59
2024-04-23T15:38:36.657Z,102252.84
2024-04-23T15:41:10.249Z,102249.19
2024-04-23T15:43:37.280Z,102242.38
2024-04-23T15:46:05.646Z,102245.72
2024-04-23T15:48:32.497Z,102247.34
2024-04-23T15:51:00.199Z,102241.38
2024-04-23T15:53:30.186Z,102239.44
2024-04-23T15:56:00.956Z,102240.41
2024-04-23T15:58:29.370Z,102239.41
2024-04-23T16:01:07.120Z,102235.16
2024-04-23T16:03:35.916Z,102236.56
2024-04-23T16:06:04.539Z,102240.94
2024-04-23T16:08:32.747Z,102234.22
2024-04-23T16:11:06.218Z,102247.03
2024-04-23T16:13:33.369Z,102243.16
2024-04-23T16:16:01.286Z,102235.75
2024-04-23T16:18:29.500Z,102235.34
2024-04-23T16:21:00.205Z,102229.19
2024-04-23T16:23:28.081Z,102237.88
2024-04-23T16:25:55.106Z,102249.25
2024-04-23T16:28:22.091Z,102234.09
2024-04-23T16:30:48.832Z,102241.75
2024-04-23T16:33:17.265Z,102239.63
2024-04-23T16:35:45.373Z,102231.53
2024-04-23T16:38:14.959Z,102210.19
2024-04-23T16:40:41.882Z,102219.41
2024-04-23T16:43:09.445Z,102230.97
2024-04-23T16:45:37.739Z,102220.66
2024-04-23T16:48:07.671Z,102216.19
2024-04-23T16:50:34.534Z,102215.50
2024-04-23T16:53:01.254Z,102212.47
2024-04-23T16:55:28.094Z,102204.59
2024-04-23T16:57:54.950Z,102206.22
2024-04-23T17:00:21.698Z,102210.13
2024-04-23T17:02:51.016Z,102195.00
2024-04-23T17:05:17.801Z,102196.66
2024-04-23T17:07:44.771Z,102191.75
2024-04-23T17:10:11.670Z,102199.22
2024-04-23T17:12:38.382Z,102173.19
2024-04-23T17:15:05.393Z,102177.16
2024-04-23T17:17:32.467Z,102181.03
2024-04-23T17:19:59.307Z,102173.34
2024-04-23T17:22:26.071Z,102167.69
2024-04-23T17:24:52.937Z,102159.91
2024-04-23T17:27:19.645Z,102170.31
2024-04-23T17:29:46.464Z,102162.00
2024-04-23T17:32:13.699Z,102156.31
2024-04-23T17:34:40.613Z,102152.34
2024-04-23T17:37:07.673Z,102150.56
2024-04-23T17:39:34.377Z,102148.41
2024-04-23T17:42:01.118Z,102147.22
2024-04-23T17:44:27.884Z,102138.03
2024-04-23T17:46:54.663Z,102126.13
2024-04-23T17:49:23.040Z,102114.31
2024-04-23T17:51:50.165Z,102110.13
2024-04-23T17:54:17.049Z,102103.63
2024-04-23T17:56:45.490Z,102093.03
2024-04-23T17:59:12.306Z,102083.41
2024-04-23T18:01:39.029Z,102068.91
2024-04-23T18:04:05.821Z,102062.22
2024-04-23T18:06:32.613Z,102057.53
2024-04-23T18:09:02.496Z,102036.69
2024-04-23T18:11:32.239Z,102019.69
2024-04-23T18:14:05.701Z,102025.78
2024-04-23T18:16:35.224Z,102020.50
2024-04-23T18:19:04.829Z,102015.38
2024-04-23T18:21:31.642Z,101997.78
2024-04-23T18:23:58.967Z,102002.06
2024-04-23T18:26:25.690Z,102001.38
2024-04-23T18:28:54.523Z,101999.19
2024-04-23T18:31:21.867Z,101989.34
2024-04-23T18:33:49.760Z,101986.72
2024-04-23T18:36:16.449Z,101971.16
2024-04-23T18:38:43.265Z,101973.94
2024-04-23T18:41:14.357Z,101961.72
2024-04-23T18:43:41.381Z,101954.38
2024-04-23T18:46:18.513Z,101948.97
2024-04-23T18:48:45.882Z,101937.50
2024-04-23T18:51:14.694Z,101936.91
2024-04-23T18:53:42.719Z,101929.97
2024-04-23T18:56:20.096Z,101916.38
2024-04-23T18:58:46.879Z,101917.25
2024-04-23T19:01:15.321Z,101904.97
2024-04-23T19:03:42.738Z,101897.06
2024-04-23T19:06:16.315Z,101886.97
2024-04-23T19:08:47.577Z,101888.22
2024-04-23T19:11:15.283Z,101886.69
2024-04-23T19:13:42.224Z,101886.13
2024-04-23T19:16:13.366Z,101874.22
2024-04-23T19:18:40.879Z,101873.84
2024-04-23T19:21:12.754Z,101868.72
2024-04-23T19:23:39.444Z,101859.13
2024-04-23T19:26:07.994Z,101856.63
2024-04-23T19:28:35.169Z,101847.88
2024-04-23T19:31:12.030Z,101843.75
2024-04-23T19:33:40.499Z,101836.94
2024-04-23T19:36:07.901Z,101831.81
2024-04-23T19:38:35.993Z,101836.44
2024-04-23T19:41:13.521Z,101821.19
2024-04-23T19:43:51.030Z,101815.56
2024-04-23T19:46:20.551Z,101810.34
2024-04-23T19:48:48.658Z,101803.84
2024-04-23T19:51:18.008Z,101803.44
2024-04-23T19:53:51.121Z,101797.06
2024-04-23T19:56:27.952Z,101789.75
2024-04-23T19:58:59.020Z,101782.00
2024-04-23T20:01:27.865Z,101774.94
2024-04-23T20:03:55.673Z,101770.97
2024-04-23T20:06:22.576Z,101766.41
2024-04-23T20:08:49.277Z,101761.56
2024-04-23T20:11:16.116Z,101758.38
2024-04-23T20:13:43.007Z,101760.47
2024-04-23T20:16:10.199Z,101754.81
2024-04-23T20:18:37.178Z,101755.50
2024-04-23T20:21:04.142Z,101748.28
2024-04-23T20:23:30.802Z,101737.91
2024-04-23T20:25:57.759Z,101741.19
2024-04-23T20:28:24.602Z,101733.16
2024-04-23T20:30:51.405Z,101739.69
2024-04-23T20:33:18.341Z,101746.06
2024-04-23T20:35:45.542Z,101746.63
2024-04-23T20:38:12.362Z,101744.44
2024-04-23T20:40:39.885Z,101743.19
2024-04-23T20:43:06.722Z,101744.44
2024-04-23T20:45:33.443Z,101748.47
2024-04-23T20:48:00.434Z,101749.03
2024-04-23T20:50:27.449Z,101756.81
2024-04-23T20:52:54.373Z,101764.00
2024-04-23T20:55:21.146Z,101768.69
2024-04-23T20:57:48.022Z,101775.75
2024-04-23T21:00:14.895Z,101782.00
2024-04-23T21:02:41.708Z,101784.22
2024-04-23T21:05:08.494Z,101780.31
2024-04-23T21:07:35.311Z,101774.78
2024-04-23T21:10:02.056Z,101779.78
2024-04-23T21:12:37.706Z,101785.19
2024-04-23T21:15:04.704Z,101785.47
2024-04-23T21:17:31.497Z,101781.97
2024-04-23T21:19:58.725Z,101785.03
2024-04-23T21:22:25.425Z,101783.81
2024-04-23T21:24:52.192Z,101785.03
2024-04-23T21:27:18.886Z,101774.50
2024-04-23T21:29:45.708Z,101782.13
2024-04-23T21:32:12.896Z,101780.75
2024-04-23T21:34:39.786Z,101777.56
2024-04-23T21:37:06.509Z,101782.09
2024-04-23T21:39:33.262Z,101789.91
2024-04-23T21:42:00.066Z,101796.78
2024-04-23T21:44:26.847Z,101792.03
2024-04-23T21:46:53.715Z,101775.78
2024-04-23T21:49:20.523Z,101778.72
2024-04-23T21:52:09.548Z,101801.84
2024-04-23T21:54:36.302Z,101801.03
2024-04-23T21:57:03.102Z,101796.22
2024-04-23T21:59:29.885Z,101793.75
2024-04-23T22:01:56.735Z,101787.31
2024-04-23T22:04:24.896Z,101782.78
2024-04-23T22:06:51.631Z,101770.94
2024-04-23T22:09:18.369Z,101768.16
2024-04-23T22:11:45.266Z,101761.94
2024-04-23T22:14:12.123Z,101764.16
2024-04-23T22:16:38.840Z,101757.66
2024-04-23T22:19:05.578Z,101761.44
2024-04-23T22:21:32.371Z,101764.63
2024-04-23T22:23:59.303Z,101753.63
2024-04-23T22:26:26.015Z,101744.91
2024-04-23T22:28:52.837Z,101743.47
2024-04-23T22:31:56.771Z,101732.66
2024-04-23T22:42:23.084Z,101656.16
2024-04-23T22:45:08.947Z,101643.44
2024-04-23T22:48:13.543Z,101633.78
2024-04-23T22:50:41.030Z,101621.16
2024-04-23T22:53:45.335Z,101608.88
2024-04-23T22:56:31.088Z,101607.63
2024-04-23T22:59:54.023Z,101614.91
2024-04-23T23:02:58.855Z,101610.88
2024-04-23T23:06:03.459Z,101620.53
2024-04-23T23:08:49.025Z,101625.78
2024-04-23T23:12:12.593Z,101619.78
2024-04-23T23:15:17.067Z,101612.72
2024-04-23T23:17:43.888Z,101595.44
2024-04-23T23:20:11.002Z,101594.47
2024-04-23T23:22:37.780Z,101575.38
2024-04-23T23:25:04.971Z,101568.50
2024-04-23T23:27:31.844Z,101562.25
2024-04-23T23:30:01.445Z,101552.88
2024-04-23T23:32:28.352Z,101548.56
2024-04-23T23:34:55.357Z,101543.31
2024-04-23T23:37:22.190Z,101540.28
2024-04-23T23:39:49.028Z,101531.44
2024-04-23T23:42:15.810Z,101527.28
2024-04-23T23:44:42.618Z,101523.56
2024-04-23T23:47:09.819Z,101516.09
2024-04-23T23:49:36.623Z,101517.72
2024-04-23T23:52:03.565Z,101509.28
2024-04-23T23:54:30.387Z,101514.31
2024-04-23T23:57:01.555Z,101499.97
2024-04-23T23:59:31.455Z,101495.50
